Flight Track Log - Related Links

Times and Time Zones

All times are in EDT time to prevent confusion due to time zone crossing. See the RPA3283 flight status page for this flight to view local times or setup timezone preferences in your user account.

Time Position Orientation Groundspeed Altitude Reporting Facility
EDT Latitude Longitude Course Direction KTS MPH feet Rate Location/Type
Thu 08:06:26 AM 35.1928 -80.9356 180° South 158 182 1,300  Level Atlanta Center
Thu 08:07:09 AM 35.1553 -80.9319 175° South 173 199 2,300 1,558 Climbing Atlanta Center
Thu 08:08:00 AM 34.9453 -80.9933 175° South  Level Estimated
Thu 08:08:10 AM 35.0861 -80.9192 171° South 275 316 4,000  Level Atlanta Center
Thu 08:08:10 AM 35.0861 -80.9192 171° South 273 314 4,000 2,800 Level Atlanta Center
Thu 08:09:00 AM 34.8686 -80.9352 148° Southeast  Level FlightAware
Thu 08:09:10 AM 35.0086 -80.9094 174° South 284 327 6,800  Level Atlanta Center
Thu 08:10:00 AM 34.7793 -80.9513 180° South  Level Estimated
Thu 08:10:10 AM 34.9269 -80.9025 176° South 298 343 9,200  Level Atlanta Center
Thu 08:11:00 AM 34.6899 -80.9675 180° South  Level Estimated
Thu 08:11:10 AM 34.8436 -80.9056 182° South 306 352 11,000  Level Atlanta Center
Thu 08:12:10 AM 34.7622 -80.8986 176° South 319 367 13,000 1,957 Climbing Atlanta Center
Thu 08:14:14 AM 34.5464 -80.8861 177° South 363 418 17,000 1,826 Climbing Jacksonville Center
Thu 08:15:14 AM 34.4444 -80.9036 188° South 363 418 18,600 1,600 Climbing Jacksonville Center
Thu 08:16:14 AM 34.3425 -80.9183 187° South 372 428 20,200 1,450 Climbing Jacksonville Center
Thu 08:17:14 AM 34.2425 -80.9308 186° South 372 428 21,500 1,350 Climbing Jacksonville Center
Thu 08:18:14 AM 34.1303 -80.9433 185° South 377 434 22,900 1,250 Climbing Jacksonville Center
Thu 08:19:14 AM 34.0197 -80.9608 187° South 392 451 24,000 1,100 Climbing Jacksonville Center
Thu 08:20:14 AM 33.9053 -80.9733 185° South 406 467 25,100 1,100 Climbing Jacksonville Center
Thu 08:21:14 AM 33.7886 -80.9908 187° South 418 481 26,200 1,150 Climbing Jacksonville Center
Thu 08:22:14 AM 33.6719 -81.0058 186° South 423 487 27,400 900 Climbing Jacksonville Center
Thu 08:23:14 AM 33.5533 -81.0233 187° South 428 493 28,000 300 Climbing Jacksonville Center
Thu 08:24:14 AM 33.4306 -81.0383 186° South 439 505 28,000  Level Jacksonville Center
Thu 08:25:14 AM 33.3097 -81.0533 186° South 444 511 28,000  Level Jacksonville Center
Thu 08:26:14 AM 33.1867 -81.0683 186° South 444 511 28,000  Level Jacksonville Center
Thu 08:27:14 AM 33.0639 -81.0831 186° South 444 511 28,000  Level Jacksonville Center
Thu 08:28:14 AM 32.9428 -81.0981 186° South 444 511 28,000  Level Jacksonville Center
Thu 08:29:14 AM 32.8242 -81.1153 187° South 444 511 28,000  Level Jacksonville Center
Thu 08:30:14 AM 32.7117 -81.1297 186° South 450 518 28,000  Level Jacksonville Center
Thu 08:31:14 AM 32.5928 -81.1469 187° South 441 507 28,000 -200 Level Jacksonville Center
Thu 08:32:14 AM 32.4594 -81.1667 187° South 441 507 27,600 -750 Descending Jacksonville Center
Thu 08:33:14 AM 32.3514 -81.1833 187° South 447 514 26,500 -1,150 Descending Jacksonville Center
Thu 08:34:14 AM 32.2347 -81.2078 190° South 435 501 25,300 -1,200 Descending Jacksonville Center
Thu 08:35:14 AM 32.1222 -81.2294 189° South 429 494 24,100 -1,150 Descending Jacksonville Center
Thu 08:36:14 AM 32.0119 -81.2558 191° South 416 479 23,000 -1,100 Descending Jacksonville Center
Thu 08:37:14 AM 31.9014 -81.2750 188° South 409 471 21,900 -1,200 Descending Jacksonville Center
Thu 08:38:14 AM 31.7850 -81.2992 190° South 397 457 20,600 -1,250 Descending Jacksonville Center
Thu 08:39:14 AM 31.6808 -81.3203 190° South 387 445 19,400 -1,150 Descending Jacksonville Center
Thu 08:40:14 AM 31.5911 -81.3364 189° South 374 430 18,300 -1,200 Descending Jacksonville Center
Thu 08:41:14 AM 31.4828 -81.3603 191° South 369 425 17,000 -1,400 Descending Jacksonville Center
Thu 08:42:14 AM 31.3892 -81.3764 188° South 360 414 15,500 -1,550 Descending Jacksonville Center
Thu 08:43:14 AM 31.2956 -81.3997 192° South 341 392 13,900 -1,550 Descending Jacksonville Center
Thu 08:44:14 AM 31.2081 -81.4181 190° South 331 381 12,400 -1,485 Descending Jacksonville Center
Thu 08:44:55 AM 31.1456 -81.4314 190° South 324 373 11,400 -1,400 Descending Jacksonville Center
Thu 08:45:14 AM 31.1164 -81.4342 185° South 331 381 11,000 -1,273 Descending Jacksonville Center
Thu 08:46:01 AM 31.0517 -81.4472 190° South 317 365 10,000 -550 Descending Jacksonville Center
Thu 08:47:03 AM 30.9706 -81.4681 192° South 297 342 10,000 -146 Level Jacksonville Center
Thu 08:48:04 AM 30.8917 -81.5053 202° Southwest 269 310 9,700 -1,172 Descending Jacksonville Center
Thu 08:49:11 AM 30.8106 -81.5406 200° South 281 323 7,500 -1,770 Descending Jacksonville Center
Thu 08:50:06 AM 30.7483 -81.5753 206° Southwest 276 318 6,100 -1,603 Descending Jacksonville Center
Thu 08:51:07 AM 30.6797 -81.6075 202° Southwest 272 313 4,400 -1,641 Descending Jacksonville Center
Thu 08:52:14 AM 30.5922 -81.6158 185° South 264 304 2,600 -1,125 Descending Jacksonville Center
Thu 08:53:15 AM 30.5233 -81.6169 181° South 233 268 2,000 -569 Descending Jacksonville Center
Thu 08:54:10 AM 30.4753 -81.6128 176° South 166 191 1,500 -545 Descending Jacksonville Center

Login

Don't have an account? Register now (free) for customized features, flight alerts, and more!